EAG5510 SVMC-SBEG
Flight info
| Callsign | EAG5510 |
|---|---|
| Flight time | 2h 32m |
| Altitude | 37000 |
| Route | OJEDA1 OJEDA DCT SIGAB UM409 VUMPI UL795 TIPTO |
| Aircraft | B738/M-SDE2E3FGHIRWXY/LB1 |
Departure
| Time | 2026-05-04 15:27 |
|---|---|
| Airport | La Chinita International Airport (SVMC) |
Arrival
| Time | 2026-05-04 17:59 |
|---|---|
| Airport | Eduardo Gomes International Airport (SBEG) |
| Time | Latitude | Longitude | Altitude | Speed | Heading |
|---|---|---|---|---|---|
| 2026-05-04 15:04 | 10.55390 | -71.72575 | 225 ft | 0 kts | 24° |
| 2026-05-04 15:06 | 10.55579 | -71.72523 | 227 ft | 0 kts | 194° |
| 2026-05-04 15:16 | 10.55590 | -71.72520 | 230 ft | 4 kts | 201° |
| 2026-05-04 15:17 | 10.55610 | -71.72506 | 228 ft | 4 kts | 249° |
| 2026-05-04 15:17 | 10.55611 | -71.72492 | 229 ft | 1 kts | 292° |
| 2026-05-04 15:22 | 10.55612 | -71.72494 | 229 ft | 4 kts | 292° |
| 2026-05-04 15:22 | 10.55645 | -71.72565 | 227 ft | 11 kts | 299° |
| 2026-05-04 15:22 | 10.55701 | -71.72731 | 227 ft | 13 kts | 250° |
| 2026-05-04 15:23 | 10.55627 | -71.72773 | 226 ft | 12 kts | 202° |
| 2026-05-04 15:23 | 10.55548 | -71.72807 | 225 ft | 12 kts | 202° |
| 2026-05-04 15:23 | 10.55448 | -71.72848 | 223 ft | 20 kts | 202° |
| 2026-05-04 15:23 | 10.55312 | -71.72906 | 221 ft | 21 kts | 202° |
| 2026-05-04 15:24 | 10.55047 | -71.73017 | 220 ft | 20 kts | 202° |
| 2026-05-04 15:24 | 10.54798 | -71.73123 | 214 ft | 19 kts | 202° |
| 2026-05-04 15:25 | 10.54709 | -71.73173 | 217 ft | 14 kts | 220° |
| 2026-05-04 15:25 | 10.54644 | -71.73239 | 224 ft | 13 kts | 226° |
| 2026-05-04 15:25 | 10.54584 | -71.73306 | 221 ft | 13 kts | 236° |
| 2026-05-04 15:26 | 10.54594 | -71.73376 | 222 ft | 0 kts | 311° |
| 2026-05-04 15:26 | 10.54607 | -71.73387 | 222 ft | 7 kts | 323° |
| 2026-05-04 15:26 | 10.54911 | -71.73276 | 225 ft | 75 kts | 22° |
| 2026-05-04 15:27 | 10.55600 | -71.72986 | 235 ft | 137 kts | 22° |
| 2026-05-04 15:27 | 10.57734 | -71.72086 | 1118 ft | 173 kts | 24° |
| 2026-05-04 15:28 | 10.59995 | -71.71182 | 2632 ft | 177 kts | 22° |
| 2026-05-04 15:28 | 10.61158 | -71.70733 | 3392 ft | 182 kts | 22° |
| 2026-05-04 15:28 | 10.63559 | -71.69817 | 4910 ft | 188 kts | 22° |
| 2026-05-04 15:29 | 10.64827 | -71.69396 | 5589 ft | 195 kts | 15° |
| 2026-05-04 15:30 | 10.65672 | -71.64730 | 6620 ft | 271 kts | 152° |
| 2026-05-04 15:30 | 10.60082 | -71.63287 | 8836 ft | 284 kts | 174° |
| 2026-05-04 15:31 | 10.56076 | -71.63033 | 10240 ft | 294 kts | 172° |
| 2026-05-04 15:31 | 10.53959 | -71.62850 | 10444 ft | 317 kts | 172° |
| 2026-05-04 15:32 | 10.46840 | -71.62049 | 11326 ft | 360 kts | 171° |
| 2026-05-04 15:32 | 10.41796 | -71.61412 | 12567 ft | 365 kts | 170° |
| 2026-05-04 15:33 | 10.36699 | -71.60751 | 13776 ft | 373 kts | 170° |
| 2026-05-04 15:34 | 10.28904 | -71.59736 | 15458 ft | 383 kts | 170° |
| 2026-05-04 15:34 | 10.26248 | -71.59390 | 16031 ft | 386 kts | 170° |
| 2026-05-04 15:34 | 10.20876 | -71.58690 | 17133 ft | 393 kts | 170° |
| 2026-05-04 15:35 | 10.15764 | -71.56937 | 18159 ft | 392 kts | 140° |
| 2026-05-04 15:35 | 10.13858 | -71.54971 | 18638 ft | 392 kts | 124° |
| 2026-05-04 15:35 | 10.12588 | -71.52525 | 19048 ft | 394 kts | 111° |
| 2026-05-04 15:36 | 10.10636 | -71.47257 | 19836 ft | 403 kts | 110° |
| 2026-05-04 15:36 | 10.09637 | -71.44581 | 20241 ft | 407 kts | 110° |
| 2026-05-04 15:36 | 10.08603 | -71.41889 | 20653 ft | 411 kts | 111° |
| 2026-05-04 15:37 | 10.07416 | -71.39241 | 21015 ft | 416 kts | 120° |
| 2026-05-04 15:37 | 10.05711 | -71.36856 | 21402 ft | 420 kts | 131° |
| 2026-05-04 15:37 | 10.03588 | -71.34809 | 21779 ft | 425 kts | 142° |
| 2026-05-04 15:37 | 10.01140 | -71.33111 | 22176 ft | 428 kts | 146° |
| 2026-05-04 15:38 | 9.98625 | -71.31474 | 22551 ft | 431 kts | 147° |
| 2026-05-04 15:38 | 9.96082 | -71.29831 | 22887 ft | 435 kts | 147° |
| 2026-05-04 15:38 | 9.93520 | -71.28160 | 23201 ft | 440 kts | 147° |
| 2026-05-04 15:38 | 9.90980 | -71.26481 | 23534 ft | 443 kts | 146° |
| 2026-05-04 15:39 | 9.88395 | -71.24756 | 23819 ft | 446 kts | 146° |
| 2026-05-04 15:39 | 9.85798 | -71.23016 | 24130 ft | 448 kts | 146° |
| 2026-05-04 15:39 | 9.80569 | -71.19515 | 24736 ft | 453 kts | 146° |
| 2026-05-04 15:40 | 9.78002 | -71.17643 | 25012 ft | 455 kts | 142° |
| 2026-05-04 15:40 | 9.75520 | -71.15643 | 25291 ft | 457 kts | 140° |
| 2026-05-04 15:40 | 9.73057 | -71.13586 | 25565 ft | 460 kts | 140° |
| 2026-05-04 15:40 | 9.70590 | -71.11512 | 25869 ft | 461 kts | 140° |
| 2026-05-04 15:41 | 9.68101 | -71.09430 | 26135 ft | 464 kts | 140° |
| 2026-05-04 15:41 | 9.65594 | -71.07351 | 26385 ft | 466 kts | 141° |
| 2026-05-04 15:41 | 9.63070 | -71.05269 | 26661 ft | 468 kts | 141° |
| 2026-05-04 15:41 | 9.60532 | -71.03186 | 26938 ft | 470 kts | 141° |
| 2026-05-04 15:42 | 9.58020 | -71.01127 | 27225 ft | 472 kts | 141° |
| 2026-05-04 15:42 | 9.55466 | -70.99036 | 27498 ft | 473 kts | 141° |
| 2026-05-04 15:42 | 9.52898 | -70.96932 | 27766 ft | 475 kts | 141° |
| 2026-05-04 15:42 | 9.50323 | -70.94822 | 28013 ft | 477 kts | 141° |
| 2026-05-04 15:43 | 9.47738 | -70.92703 | 28242 ft | 479 kts | 141° |
| 2026-05-04 15:43 | 9.45136 | -70.90570 | 28474 ft | 482 kts | 141° |
| 2026-05-04 15:43 | 9.42528 | -70.88435 | 28712 ft | 484 kts | 141° |
| 2026-05-04 15:43 | 9.39905 | -70.86287 | 28938 ft | 486 kts | 141° |
| 2026-05-04 15:44 | 9.37269 | -70.84129 | 29115 ft | 489 kts | 141° |
| 2026-05-04 15:44 | 9.34616 | -70.81956 | 29323 ft | 491 kts | 141° |
| 2026-05-04 15:44 | 9.31955 | -70.79776 | 29559 ft | 492 kts | 141° |
| 2026-05-04 15:44 | 9.29283 | -70.77588 | 29707 ft | 495 kts | 141° |
| 2026-05-04 15:45 | 9.27502 | -70.76130 | 29868 ft | 496 kts | 141° |
| 2026-05-04 15:45 | 9.23951 | -70.73215 | 30244 ft | 495 kts | 141° |
| 2026-05-04 15:45 | 9.21289 | -70.71025 | 30645 ft | 492 kts | 141° |
| 2026-05-04 15:45 | 9.18635 | -70.68841 | 30983 ft | 490 kts | 141° |
| 2026-05-04 15:46 | 9.15990 | -70.66664 | 31260 ft | 490 kts | 141° |
| 2026-05-04 15:46 | 9.13341 | -70.64485 | 31504 ft | 491 kts | 141° |
| 2026-05-04 15:46 | 9.11554 | -70.63016 | 31733 ft | 489 kts | 141° |
| 2026-05-04 15:46 | 9.08063 | -70.60145 | 32271 ft | 485 kts | 141° |
| 2026-05-04 15:47 | 9.06331 | -70.58721 | 32486 ft | 485 kts | 141° |
| 2026-05-04 15:47 | 9.03713 | -70.56571 | 32798 ft | 484 kts | 142° |
| 2026-05-04 15:47 | 9.01092 | -70.54418 | 33081 ft | 484 kts | 142° |
| 2026-05-04 15:47 | 8.98477 | -70.52270 | 33388 ft | 483 kts | 142° |
| 2026-05-04 15:48 | 8.95874 | -70.50131 | 33704 ft | 482 kts | 142° |
| 2026-05-04 15:48 | 8.93269 | -70.47992 | 34049 ft | 481 kts | 142° |
| 2026-05-04 15:48 | 8.88088 | -70.43739 | 34634 ft | 478 kts | 142° |
| 2026-05-04 15:49 | 8.85534 | -70.41643 | 34902 ft | 477 kts | 142° |
| 2026-05-04 15:49 | 8.82962 | -70.39534 | 35177 ft | 476 kts | 142° |
| 2026-05-04 15:49 | 8.80388 | -70.37422 | 35468 ft | 474 kts | 142° |
| 2026-05-04 15:49 | 8.77827 | -70.35321 | 35759 ft | 473 kts | 142° |
| 2026-05-04 15:50 | 8.75275 | -70.33229 | 36031 ft | 472 kts | 141° |
| 2026-05-04 15:50 | 8.72728 | -70.31140 | 36301 ft | 471 kts | 141° |
| 2026-05-04 15:50 | 8.70188 | -70.29058 | 36569 ft | 470 kts | 141° |
| 2026-05-04 15:50 | 8.67651 | -70.26978 | 36821 ft | 469 kts | 141° |
| 2026-05-04 15:51 | 8.65119 | -70.24903 | 37039 ft | 468 kts | 141° |
| 2026-05-04 15:51 | 8.62584 | -70.22826 | 36995 ft | 471 kts | 141° |
| 2026-05-04 15:51 | 8.57562 | -70.18643 | 37010 ft | 469 kts | 140° |
| 2026-05-04 15:52 | 8.52577 | -70.14399 | 37004 ft | 467 kts | 140° |
| 2026-05-04 15:52 | 8.47610 | -70.10170 | 36983 ft | 466 kts | 140° |
| 2026-05-04 15:53 | 8.42654 | -70.05964 | 36999 ft | 465 kts | 140° |
| 2026-05-04 15:53 | 8.37698 | -70.01767 | 36999 ft | 465 kts | 140° |
| 2026-05-04 15:54 | 8.32737 | -69.97568 | 36991 ft | 465 kts | 140° |
| 2026-05-04 15:54 | 8.27770 | -69.93365 | 36985 ft | 467 kts | 140° |
| 2026-05-04 15:55 | 8.22789 | -69.89152 | 37001 ft | 467 kts | 140° |
| 2026-05-04 15:55 | 8.17799 | -69.84931 | 36983 ft | 469 kts | 140° |
| 2026-05-04 15:56 | 8.12828 | -69.80729 | 37002 ft | 469 kts | 141° |
| 2026-05-04 15:56 | 8.07820 | -69.76497 | 37002 ft | 470 kts | 141° |
| 2026-05-04 15:57 | 8.02766 | -69.72227 | 37008 ft | 476 kts | 141° |
| 2026-05-04 15:57 | 7.97664 | -69.67919 | 37007 ft | 480 kts | 141° |
| 2026-05-04 15:58 | 7.92525 | -69.63579 | 37002 ft | 483 kts | 141° |
| 2026-05-04 15:58 | 7.87363 | -69.59223 | 36999 ft | 484 kts | 141° |
| 2026-05-04 15:59 | 7.82194 | -69.54861 | 37000 ft | 484 kts | 141° |
| 2026-05-04 15:59 | 7.77036 | -69.50511 | 36986 ft | 483 kts | 141° |
| 2026-05-04 16:00 | 7.71887 | -69.46169 | 37005 ft | 481 kts | 141° |
| 2026-05-04 16:00 | 7.66759 | -69.41847 | 37006 ft | 480 kts | 141° |
| 2026-05-04 16:01 | 7.61663 | -69.37552 | 37001 ft | 479 kts | 141° |
| 2026-05-04 16:01 | 7.56558 | -69.33251 | 37006 ft | 478 kts | 141° |
| 2026-05-04 16:02 | 7.51456 | -69.28955 | 37012 ft | 477 kts | 141° |
| 2026-05-04 16:03 | 7.43811 | -69.22535 | 37008 ft | 476 kts | 141° |
| 2026-05-04 16:03 | 7.38720 | -69.18261 | 37010 ft | 476 kts | 141° |
| 2026-05-04 16:04 | 7.33639 | -69.13994 | 37014 ft | 475 kts | 141° |
| 2026-05-04 16:04 | 7.26055 | -69.07627 | 37008 ft | 475 kts | 141° |
| 2026-05-04 16:05 | 7.20977 | -69.03367 | 37004 ft | 475 kts | 141° |
| 2026-05-04 16:06 | 7.13372 | -68.96989 | 37001 ft | 474 kts | 141° |
| 2026-05-04 16:07 | 7.03228 | -68.88484 | 36999 ft | 474 kts | 141° |
| 2026-05-04 16:08 | 6.93125 | -68.80020 | 36994 ft | 474 kts | 141° |
| 2026-05-04 16:09 | 6.80453 | -68.69409 | 37002 ft | 474 kts | 141° |
| 2026-05-04 16:10 | 6.70323 | -68.60933 | 36994 ft | 473 kts | 141° |
| 2026-05-04 16:11 | 6.60235 | -68.52496 | 36998 ft | 472 kts | 141° |
| 2026-05-04 16:12 | 6.45068 | -68.39820 | 37003 ft | 472 kts | 140° |
| 2026-05-04 16:13 | 6.34963 | -68.31380 | 36991 ft | 472 kts | 140° |
| 2026-05-04 16:14 | 6.24899 | -68.22978 | 36991 ft | 471 kts | 140° |
| 2026-05-04 16:16 | 6.12533 | -68.12199 | 37002 ft | 470 kts | 135° |
| 2026-05-04 16:17 | 6.01053 | -68.00516 | 36984 ft | 469 kts | 135° |
| 2026-05-04 16:18 | 5.91817 | -67.91256 | 36991 ft | 469 kts | 135° |
| 2026-05-04 16:19 | 5.80316 | -67.79738 | 36989 ft | 468 kts | 136° |
| 2026-05-04 16:20 | 5.68792 | -67.68201 | 36987 ft | 468 kts | 136° |
| 2026-05-04 16:22 | 5.57281 | -67.56632 | 36986 ft | 468 kts | 135° |
| 2026-05-04 16:23 | 5.43569 | -67.42642 | 36992 ft | 468 kts | 135° |
| 2026-05-04 16:25 | 5.29866 | -67.28696 | 37001 ft | 469 kts | 135° |
| 2026-05-04 16:26 | 5.13834 | -67.12391 | 37010 ft | 469 kts | 135° |
| 2026-05-04 16:28 | 5.02364 | -67.00733 | 37023 ft | 469 kts | 135° |
| 2026-05-04 16:29 | 4.86345 | -66.84461 | 37037 ft | 469 kts | 135° |
| 2026-05-04 16:31 | 4.74855 | -66.72798 | 37035 ft | 469 kts | 135° |
| 2026-05-04 16:32 | 4.61123 | -66.58865 | 37002 ft | 469 kts | 134° |
| 2026-05-04 16:33 | 4.51941 | -66.49553 | 36990 ft | 470 kts | 134° |
| 2026-05-04 16:34 | 4.45081 | -66.42597 | 36988 ft | 470 kts | 134° |
| 2026-05-04 16:35 | 4.32060 | -66.29437 | 36985 ft | 469 kts | 135° |
| 2026-05-04 16:36 | 4.25170 | -66.22476 | 36981 ft | 469 kts | 135° |
| 2026-05-04 16:37 | 4.18277 | -66.15514 | 36988 ft | 468 kts | 135° |
| 2026-05-04 16:38 | 4.09131 | -66.06278 | 36988 ft | 468 kts | 135° |
| 2026-05-04 16:39 | 3.97666 | -65.94704 | 36988 ft | 468 kts | 135° |
| 2026-05-04 16:40 | 3.88503 | -65.85458 | 37001 ft | 467 kts | 135° |
| 2026-05-04 16:41 | 3.77061 | -65.73918 | 37007 ft | 467 kts | 135° |
| 2026-05-04 16:43 | 3.65625 | -65.62387 | 37028 ft | 468 kts | 135° |
| 2026-05-04 16:43 | 3.58730 | -65.55436 | 37023 ft | 469 kts | 135° |
| 2026-05-04 16:45 | 3.44883 | -65.41484 | 37032 ft | 471 kts | 135° |
| 2026-05-04 16:46 | 3.33362 | -65.29879 | 36993 ft | 468 kts | 135° |
| 2026-05-04 16:47 | 3.24187 | -65.20640 | 36987 ft | 466 kts | 135° |
| 2026-05-04 16:48 | 3.15078 | -65.11470 | 36976 ft | 465 kts | 135° |
| 2026-05-04 16:49 | 3.05946 | -65.02280 | 36974 ft | 465 kts | 135° |
| 2026-05-04 16:50 | 2.96818 | -64.93097 | 36970 ft | 464 kts | 135° |
| 2026-05-04 16:51 | 2.90013 | -64.86252 | 36977 ft | 465 kts | 135° |
| 2026-05-04 16:52 | 2.80884 | -64.77070 | 36982 ft | 465 kts | 135° |
| 2026-05-04 16:53 | 2.74030 | -64.70178 | 36975 ft | 465 kts | 135° |
| 2026-05-04 16:54 | 2.64919 | -64.61019 | 36976 ft | 465 kts | 135° |
| 2026-05-04 16:55 | 2.51216 | -64.47247 | 36982 ft | 465 kts | 135° |
| 2026-05-04 16:56 | 2.39800 | -64.35777 | 36976 ft | 465 kts | 135° |
| 2026-05-04 16:57 | 2.32955 | -64.28901 | 36974 ft | 465 kts | 135° |
| 2026-05-04 16:58 | 2.23855 | -64.19760 | 36985 ft | 465 kts | 135° |
| 2026-05-04 17:00 | 2.10161 | -64.06009 | 36979 ft | 465 kts | 135° |
| 2026-05-04 17:01 | 1.98741 | -63.94596 | 36973 ft | 464 kts | 139° |
| 2026-05-04 17:02 | 1.88475 | -63.86797 | 36981 ft | 463 kts | 144° |
| 2026-05-04 17:03 | 1.80732 | -63.80993 | 36964 ft | 464 kts | 143° |
| 2026-05-04 17:03 | 1.73014 | -63.75156 | 36982 ft | 464 kts | 143° |
| 2026-05-04 17:04 | 1.62747 | -63.67391 | 36979 ft | 464 kts | 143° |
| 2026-05-04 17:05 | 1.52434 | -63.59593 | 36979 ft | 464 kts | 142° |
| 2026-05-04 17:06 | 1.44733 | -63.53772 | 36974 ft | 464 kts | 142° |
| 2026-05-04 17:07 | 1.37837 | -63.48559 | 36981 ft | 464 kts | 142° |
| 2026-05-04 17:07 | 1.31846 | -63.44030 | 36984 ft | 464 kts | 142° |
| 2026-05-04 17:08 | 1.24116 | -63.38186 | 36985 ft | 464 kts | 142° |
| 2026-05-04 17:09 | 1.18965 | -63.34286 | 36992 ft | 464 kts | 142° |
| 2026-05-04 17:09 | 1.13884 | -63.30350 | 36988 ft | 465 kts | 141° |
| 2026-05-04 17:10 | 1.01118 | -63.20394 | 36997 ft | 465 kts | 141° |
| 2026-05-04 17:11 | 0.96005 | -63.16419 | 36987 ft | 466 kts | 141° |
| 2026-05-04 17:12 | 0.88332 | -63.10455 | 36975 ft | 466 kts | 141° |
| 2026-05-04 17:13 | 0.75591 | -63.00552 | 36968 ft | 465 kts | 141° |
| 2026-05-04 17:14 | 0.65373 | -62.92610 | 36978 ft | 465 kts | 142° |
| 2026-05-04 17:15 | 0.57695 | -62.86642 | 36958 ft | 466 kts | 142° |
| 2026-05-04 17:16 | 0.47462 | -62.78689 | 36971 ft | 465 kts | 142° |
| 2026-05-04 17:17 | 0.37282 | -62.70778 | 36963 ft | 465 kts | 142° |
| 2026-05-04 17:18 | 0.27080 | -62.62850 | 36959 ft | 464 kts | 142° |
| 2026-05-04 17:19 | 0.16874 | -62.54919 | 36960 ft | 465 kts | 142° |
| 2026-05-04 17:20 | 0.06663 | -62.46984 | 36959 ft | 465 kts | 142° |
| 2026-05-04 17:20 | -0.00967 | -62.41055 | 36989 ft | 465 kts | 141° |
| 2026-05-04 17:21 | -0.11217 | -62.33089 | 36958 ft | 467 kts | 141° |
| 2026-05-04 17:22 | -0.16351 | -62.29100 | 36953 ft | 467 kts | 141° |
| 2026-05-04 17:23 | -0.25754 | -62.21792 | 36951 ft | 468 kts | 141° |
| 2026-05-04 17:24 | -0.33467 | -62.15798 | 36953 ft | 468 kts | 141° |
| 2026-05-04 17:25 | -0.43756 | -62.07803 | 36954 ft | 468 kts | 141° |
| 2026-05-04 17:26 | -0.54015 | -61.99829 | 36949 ft | 468 kts | 141° |
| 2026-05-04 17:27 | -0.66878 | -61.89832 | 36952 ft | 468 kts | 141° |
| 2026-05-04 17:28 | -0.77147 | -61.81851 | 36948 ft | 467 kts | 141° |
| 2026-05-04 17:29 | -0.92528 | -61.69895 | 36949 ft | 466 kts | 141° |
| 2026-05-04 17:31 | -1.05311 | -61.59957 | 36952 ft | 465 kts | 141° |
| 2026-05-04 17:32 | -1.18041 | -61.50060 | 36944 ft | 464 kts | 141° |
| 2026-05-04 17:33 | -1.28139 | -61.42208 | 36941 ft | 452 kts | 141° |
| 2026-05-04 17:34 | -1.37996 | -61.34542 | 36946 ft | 447 kts | 141° |
| 2026-05-04 17:35 | -1.50259 | -61.25003 | 36942 ft | 446 kts | 141° |
| 2026-05-04 17:36 | -1.55175 | -61.21178 | 36590 ft | 452 kts | 141° |
| 2026-05-04 17:36 | -1.57657 | -61.19247 | 36042 ft | 452 kts | 141° |
| 2026-05-04 17:36 | -1.60110 | -61.17340 | 35386 ft | 452 kts | 142° |
| 2026-05-04 17:36 | -1.62705 | -61.15563 | 34584 ft | 456 kts | 147° |
| 2026-05-04 17:37 | -1.65438 | -61.13910 | 33762 ft | 461 kts | 148° |
| 2026-05-04 17:37 | -1.68208 | -61.12277 | 32888 ft | 464 kts | 149° |
| 2026-05-04 17:37 | -1.70996 | -61.10644 | 32078 ft | 465 kts | 149° |
| 2026-05-04 17:37 | -1.73791 | -61.09002 | 31215 ft | 467 kts | 149° |
| 2026-05-04 17:38 | -1.76596 | -61.07344 | 30544 ft | 466 kts | 149° |
| 2026-05-04 17:38 | -1.79370 | -61.05695 | 29887 ft | 463 kts | 149° |
| 2026-05-04 17:38 | -1.82128 | -61.04050 | 29207 ft | 459 kts | 149° |
| 2026-05-04 17:38 | -1.84857 | -61.02419 | 28561 ft | 454 kts | 148° |
| 2026-05-04 17:39 | -1.90216 | -60.99211 | 27328 ft | 444 kts | 148° |
| 2026-05-04 17:39 | -1.92854 | -60.97632 | 26733 ft | 440 kts | 148° |
| 2026-05-04 17:39 | -1.95465 | -60.96069 | 26141 ft | 436 kts | 148° |
| 2026-05-04 17:40 | -1.98061 | -60.94515 | 25528 ft | 433 kts | 148° |
| 2026-05-04 17:40 | -2.00636 | -60.92974 | 24931 ft | 430 kts | 148° |
| 2026-05-04 17:40 | -2.03197 | -60.91441 | 24333 ft | 428 kts | 148° |
| 2026-05-04 17:40 | -2.05742 | -60.89918 | 23743 ft | 425 kts | 148° |
| 2026-05-04 17:41 | -2.08244 | -60.88421 | 23070 ft | 414 kts | 148° |
| 2026-05-04 17:41 | -2.10674 | -60.86967 | 22478 ft | 411 kts | 148° |
| 2026-05-04 17:41 | -2.13115 | -60.85505 | 21896 ft | 408 kts | 148° |
| 2026-05-04 17:41 | -2.15543 | -60.84052 | 21326 ft | 404 kts | 148° |
| 2026-05-04 17:42 | -2.17948 | -60.82612 | 20753 ft | 401 kts | 148° |
| 2026-05-04 17:42 | -2.20338 | -60.81181 | 20181 ft | 399 kts | 148° |
| 2026-05-04 17:42 | -2.22726 | -60.79751 | 19603 ft | 398 kts | 148° |
| 2026-05-04 17:42 | -2.25090 | -60.78336 | 19035 ft | 396 kts | 148° |
| 2026-05-04 17:43 | -2.27446 | -60.76925 | 18475 ft | 394 kts | 148° |
| 2026-05-04 17:43 | -2.29792 | -60.75520 | 17852 ft | 392 kts | 148° |
| 2026-05-04 17:43 | -2.32128 | -60.74122 | 17272 ft | 389 kts | 148° |
| 2026-05-04 17:43 | -2.34444 | -60.72735 | 16701 ft | 383 kts | 148° |
| 2026-05-04 17:44 | -2.36684 | -60.71395 | 16166 ft | 378 kts | 148° |
| 2026-05-04 17:44 | -2.38936 | -60.70046 | 15630 ft | 376 kts | 148° |
| 2026-05-04 17:44 | -2.41174 | -60.68706 | 15079 ft | 374 kts | 147° |
| 2026-05-04 17:44 | -2.43402 | -60.67371 | 14536 ft | 373 kts | 147° |
| 2026-05-04 17:45 | -2.45625 | -60.66040 | 13992 ft | 371 kts | 147° |
| 2026-05-04 17:45 | -2.47836 | -60.64716 | 13420 ft | 370 kts | 147° |
| 2026-05-04 17:45 | -2.50036 | -60.63398 | 12860 ft | 367 kts | 147° |
| 2026-05-04 17:45 | -2.52201 | -60.62102 | 12320 ft | 359 kts | 147° |
| 2026-05-04 17:46 | -2.54338 | -60.60823 | 11810 ft | 357 kts | 147° |
| 2026-05-04 17:46 | -2.56463 | -60.59550 | 11280 ft | 355 kts | 147° |
| 2026-05-04 17:46 | -2.58575 | -60.58284 | 10785 ft | 353 kts | 147° |
| 2026-05-04 17:46 | -2.60646 | -60.57044 | 10605 ft | 341 kts | 147° |
| 2026-05-04 17:47 | -2.62653 | -60.55843 | 10454 ft | 330 kts | 147° |
| 2026-05-04 17:47 | -2.64590 | -60.54684 | 10304 ft | 319 kts | 147° |
| 2026-05-04 17:47 | -2.66456 | -60.53567 | 10169 ft | 305 kts | 146° |
| 2026-05-04 17:47 | -2.68241 | -60.52499 | 10047 ft | 294 kts | 146° |
| 2026-05-04 17:48 | -2.69970 | -60.51462 | 9871 ft | 286 kts | 146° |
| 2026-05-04 17:48 | -2.71670 | -60.50442 | 9549 ft | 284 kts | 146° |
| 2026-05-04 17:48 | -2.73361 | -60.49428 | 9248 ft | 283 kts | 146° |
| 2026-05-04 17:48 | -2.75023 | -60.48430 | 8944 ft | 281 kts | 146° |
| 2026-05-04 17:49 | -2.76698 | -60.47426 | 8650 ft | 280 kts | 146° |
| 2026-05-04 17:49 | -2.78365 | -60.46426 | 8343 ft | 279 kts | 146° |
| 2026-05-04 17:49 | -2.80030 | -60.45428 | 8047 ft | 278 kts | 146° |
| 2026-05-04 17:49 | -2.81684 | -60.44436 | 7748 ft | 277 kts | 146° |
| 2026-05-04 17:50 | -2.83332 | -60.43448 | 7448 ft | 276 kts | 146° |
| 2026-05-04 17:50 | -2.84978 | -60.42461 | 7152 ft | 275 kts | 146° |
| 2026-05-04 17:50 | -2.86620 | -60.41477 | 6854 ft | 275 kts | 146° |
| 2026-05-04 17:50 | -2.88261 | -60.40493 | 6562 ft | 275 kts | 146° |
| 2026-05-04 17:51 | -2.89901 | -60.39510 | 6251 ft | 274 kts | 147° |
| 2026-05-04 17:51 | -2.91535 | -60.38530 | 5939 ft | 274 kts | 146° |
| 2026-05-04 17:51 | -2.93170 | -60.37550 | 5638 ft | 273 kts | 146° |
| 2026-05-04 17:51 | -2.94796 | -60.36575 | 5339 ft | 272 kts | 146° |
| 2026-05-04 17:52 | -2.96417 | -60.35603 | 5046 ft | 271 kts | 147° |
| 2026-05-04 17:52 | -2.98022 | -60.34640 | 4752 ft | 267 kts | 146° |
| 2026-05-04 17:52 | -2.99568 | -60.33716 | 4604 ft | 248 kts | 146° |
| 2026-05-04 17:52 | -3.00992 | -60.32865 | 4461 ft | 229 kts | 146° |
| 2026-05-04 17:53 | -3.02308 | -60.32071 | 4328 ft | 211 kts | 142° |
| 2026-05-04 17:53 | -3.03148 | -60.30993 | 4123 ft | 192 kts | 102° |
| 2026-05-04 17:53 | -3.03384 | -60.29705 | 3844 ft | 184 kts | 96° |
| 2026-05-04 17:53 | -3.03566 | -60.28452 | 3672 ft | 182 kts | 95° |
| 2026-05-04 17:54 | -3.03716 | -60.27200 | 3524 ft | 179 kts | 92° |
| 2026-05-04 17:54 | -3.03785 | -60.25978 | 3361 ft | 172 kts | 89° |
| 2026-05-04 17:54 | -3.03809 | -60.24824 | 3210 ft | 164 kts | 88° |
| 2026-05-04 17:54 | -3.03818 | -60.23686 | 3086 ft | 165 kts | 88° |
| 2026-05-04 17:55 | -3.03822 | -60.22540 | 2921 ft | 164 kts | 88° |
| 2026-05-04 17:55 | -3.03825 | -60.21405 | 2766 ft | 162 kts | 89° |
| 2026-05-04 17:55 | -3.03827 | -60.20280 | 2618 ft | 162 kts | 89° |
| 2026-05-04 17:55 | -3.03830 | -60.19155 | 2487 ft | 162 kts | 88° |
| 2026-05-04 17:56 | -3.03832 | -60.18029 | 2333 ft | 160 kts | 88° |
| 2026-05-04 17:56 | -3.03834 | -60.16936 | 2188 ft | 157 kts | 88° |
| 2026-05-04 17:56 | -3.03836 | -60.15869 | 2084 ft | 148 kts | 88° |
| 2026-05-04 17:56 | -3.03838 | -60.14860 | 1952 ft | 142 kts | 88° |
| 2026-05-04 17:57 | -3.03840 | -60.13880 | 1761 ft | 140 kts | 88° |
| 2026-05-04 17:57 | -3.03842 | -60.12900 | 1598 ft | 142 kts | 88° |
| 2026-05-04 17:57 | -3.03843 | -60.11916 | 1380 ft | 141 kts | 90° |
| 2026-05-04 17:57 | -3.03846 | -60.10931 | 1244 ft | 145 kts | 88° |
| 2026-05-04 17:58 | -3.03848 | -60.09921 | 1037 ft | 144 kts | 89° |
| 2026-05-04 17:58 | -3.03848 | -60.08917 | 812 ft | 144 kts | 87° |
| 2026-05-04 17:58 | -3.03847 | -60.07911 | 604 ft | 143 kts | 89° |
| 2026-05-04 17:58 | -3.03850 | -60.06911 | 425 ft | 145 kts | 89° |
| 2026-05-04 17:59 | -3.03856 | -60.05912 | 285 ft | 140 kts | 89° |
| 2026-05-04 17:59 | -3.03859 | -60.05061 | 269 ft | 95 kts | 90° |
| 2026-05-04 17:59 | -3.03861 | -60.04164 | 270 ft | 48 kts | 90° |
| 2026-05-04 18:00 | -3.03862 | -60.03935 | 269 ft | 15 kts | 90° |
| 2026-05-04 18:00 | -3.03858 | -60.03831 | 269 ft | 15 kts | 75° |
| 2026-05-04 18:00 | -3.03816 | -60.03775 | 269 ft | 7 kts | 32° |
| 2026-05-04 18:00 | -3.03775 | -60.03768 | 269 ft | 5 kts | 358° |
| 2026-05-04 18:01 | -3.03743 | -60.03775 | 269 ft | 5 kts | 339° |
| 2026-05-04 18:01 | -3.03716 | -60.03793 | 271 ft | 5 kts | 320° |
| 2026-05-04 18:01 | -3.03692 | -60.03828 | 269 ft | 8 kts | 297° |
| 2026-05-04 18:02 | -3.03651 | -60.03959 | 269 ft | 10 kts | 284° |
| 2026-05-04 18:02 | -3.03634 | -60.04028 | 269 ft | 10 kts | 285° |
| 2026-05-04 18:02 | -3.03616 | -60.04094 | 269 ft | 10 kts | 285° |
| 2026-05-04 18:02 | -3.03598 | -60.04159 | 269 ft | 10 kts | 285° |
| 2026-05-04 18:03 | -3.03577 | -60.04221 | 269 ft | 9 kts | 295° |
| 2026-05-04 18:03 | -3.03544 | -60.04276 | 269 ft | 9 kts | 307° |
| 2026-05-04 18:03 | -3.03501 | -60.04320 | 269 ft | 9 kts | 322° |
| 2026-05-04 18:03 | -3.03451 | -60.04352 | 269 ft | 9 kts | 332° |
| 2026-05-04 18:04 | -3.03396 | -60.04373 | 269 ft | 8 kts | 343° |
| 2026-05-04 18:04 | -3.03343 | -60.04393 | 269 ft | 8 kts | 322° |
| 2026-05-04 18:04 | -3.03346 | -60.04498 | 269 ft | 8 kts | 260° |
| 2026-05-04 18:05 | -3.03347 | -60.04526 | 269 ft | 3 kts | 298° |
| 2026-05-04 18:05 | -3.03327 | -60.04532 | 269 ft | 3 kts | 349° |
| 2026-05-04 18:05 | -3.03305 | -60.04535 | 269 ft | 3 kts | 353° |
| 2026-05-04 18:05 | -3.03286 | -60.04537 | 269 ft | 2 kts | 353° |
| 2026-05-04 18:06 | -3.03269 | -60.04539 | 269 ft | 0 kts | 353° |